createdAt,value
2024-03-05T00:00:13.414Z,8.54
2024-03-05T00:02:42.039Z,8.56
2024-03-05T00:05:10.773Z,8.52
2024-03-05T00:07:38.799Z,8.52
2024-03-05T00:10:08.561Z,8.49
2024-03-05T00:12:36.973Z,8.47
2024-03-05T00:15:06.419Z,8.40
2024-03-05T00:17:35.887Z,8.37
2024-03-05T00:20:04.488Z,8.32
2024-03-05T00:22:32.649Z,8.34
2024-03-05T00:25:00.916Z,8.22
2024-03-05T00:27:29.037Z,8.25
2024-03-05T00:29:57.900Z,8.28
2024-03-05T00:32:26.014Z,8.33
2024-03-05T00:34:55.517Z,8.36
2024-03-05T00:37:23.761Z,8.26
2024-03-05T00:39:52.010Z,8.29
2024-03-05T00:42:20.133Z,8.26
2024-03-05T00:44:48.274Z,8.26
2024-03-05T00:47:16.404Z,8.25
2024-03-05T00:49:44.653Z,8.26
2024-03-05T00:52:14.835Z,8.28
2024-03-05T00:54:42.956Z,8.23
2024-03-05T00:57:11.157Z,8.19
2024-03-05T00:59:39.212Z,8.17
2024-03-05T01:02:07.626Z,8.23
2024-03-05T01:04:35.896Z,8.17
2024-03-05T01:07:03.983Z,8.13
2024-03-05T01:09:33.500Z,8.09
2024-03-05T01:12:02.313Z,8.12
2024-03-05T01:14:31.828Z,8.13
2024-03-05T01:16:59.021Z,8.15
2024-03-05T01:19:27.098Z,8.17
2024-03-05T01:21:55.636Z,8.16
2024-03-05T01:24:26.235Z,8.19
2024-03-05T01:26:55.952Z,8.25
2024-03-05T01:29:24.022Z,8.19
2024-03-05T01:31:57.464Z,8.25
2024-03-05T01:34:25.693Z,8.19
2024-03-05T01:36:58.159Z,8.19
2024-03-05T01:39:27.224Z,8.26
2024-03-05T01:41:57.012Z,8.19
2024-03-05T01:44:25.754Z,8.28
2024-03-05T01:46:57.521Z,8.40
2024-03-05T01:49:27.227Z,8.37
2024-03-05T01:51:58.583Z,8.34
2024-03-05T01:54:30.073Z,8.42
2024-03-05T01:57:04.933Z,8.42
2024-03-05T01:59:33.316Z,8.30
2024-03-05T02:02:01.528Z,8.34
2024-03-05T02:04:32.904Z,8.36
2024-03-05T02:07:03.766Z,8.23
2024-03-05T02:09:32.150Z,8.26
2024-03-05T02:12:04.249Z,8.36
2024-03-05T02:14:33.708Z,8.25
2024-03-05T02:17:03.107Z,8.25
2024-03-05T02:19:31.339Z,8.29
2024-03-05T02:22:03.798Z,8.16
2024-03-05T02:24:32.396Z,8.17
2024-03-05T02:27:03.017Z,8.16
2024-03-05T02:29:31.231Z,8.17
2024-03-05T02:31:59.816Z,8.15
2024-03-05T02:34:28.878Z,8.26
2024-03-05T02:36:57.777Z,8.32
2024-03-05T02:39:28.485Z,8.28
2024-03-05T02:41:56.601Z,8.42
2024-03-05T02:44:24.808Z,8.36
2024-03-05T02:46:53.047Z,8.36
2024-03-05T02:49:21.422Z,8.42
2024-03-05T02:51:50.374Z,8.28
2024-03-05T02:54:18.432Z,8.25
2024-03-05T02:56:48.073Z,8.26
2024-03-05T02:59:16.607Z,8.19
2024-03-05T03:01:48.932Z,8.16
2024-03-05T03:04:17.637Z,8.21
2024-03-05T03:06:45.738Z,8.19
2024-03-05T03:09:14.009Z,8.19
2024-03-05T03:11:43.194Z,8.19
2024-03-05T03:14:13.413Z,8.16
2024-03-05T03:16:44.910Z,8.13
2024-03-05T03:19:13.560Z,8.17
2024-03-05T03:21:42.474Z,8.22
2024-03-05T03:24:12.997Z,8.17
2024-03-05T03:26:41.179Z,8.07
2024-03-05T03:29:12.617Z,8.02
2024-03-05T03:31:47.120Z,8.09
2024-03-05T03:34:17.486Z,8.09
2024-03-05T03:36:45.945Z,8.12
2024-03-05T03:39:24.851Z,8.05
2024-03-05T03:41:56.286Z,8.09
2024-03-05T03:44:24.703Z,7.99
2024-03-05T03:46:54.731Z,7.99
2024-03-05T03:49:25.469Z,8.02
2024-03-05T03:51:55.463Z,8.01
2024-03-05T03:54:24.226Z,8.02
2024-03-05T03:56:52.832Z,8.01
2024-03-05T03:59:21.432Z,7.99
2024-03-05T04:01:51.047Z,7.96
2024-03-05T04:04:20.569Z,7.89
2024-03-05T04:06:49.108Z,7.91
2024-03-05T04:09:18.168Z,7.92
2024-03-05T04:11:47.557Z,7.88
2024-03-05T04:14:15.861Z,7.92
2024-03-05T04:16:44.875Z,7.96
2024-03-05T04:19:13.300Z,7.89
2024-03-05T04:21:47.309Z,7.88
2024-03-05T04:24:15.529Z,7.88
2024-03-05T04:26:44.382Z,7.85
2024-03-05T04:29:18.216Z,7.86
2024-03-05T04:31:56.361Z,7.77
2024-03-05T04:34:24.990Z,7.82
2024-03-05T04:36:56.264Z,7.88
2024-03-05T04:39:26.173Z,7.96
2024-03-05T04:41:54.643Z,7.98
2024-03-05T04:44:22.911Z,7.99
2024-03-05T04:46:50.967Z,8.07
2024-03-05T04:49:19.341Z,8.05
2024-03-05T04:51:47.909Z,8.10
2024-03-05T04:54:17.448Z,8.15
2024-03-05T04:56:45.545Z,8.15
2024-03-05T04:59:13.729Z,8.15
2024-03-05T05:01:45.588Z,8.12
2024-03-05T05:04:13.764Z,8.13
2024-03-05T05:06:42.293Z,8.13
2024-03-05T05:09:10.596Z,8.25
2024-03-05T05:11:40.297Z,8.17
2024-03-05T05:14:09.172Z,8.26
2024-03-05T05:16:37.573Z,8.26
2024-03-05T05:19:06.417Z,8.29
2024-03-05T05:21:35.734Z,8.37
2024-03-05T05:24:05.943Z,8.34
2024-03-05T05:26:34.294Z,8.34
2024-03-05T05:29:04.098Z,8.40
2024-03-05T05:31:32.969Z,8.47
2024-03-05T05:34:01.365Z,8.54
2024-03-05T05:36:29.580Z,8.59
2024-03-05T05:38:58.131Z,8.70
2024-03-05T05:41:26.399Z,8.75
2024-03-05T05:43:54.573Z,8.87
2024-03-05T05:46:26.212Z,9.00
2024-03-05T05:48:55.742Z,9.04
2024-03-05T05:51:25.248Z,9.02
2024-03-05T05:53:55.121Z,9.08
2024-03-05T05:56:23.274Z,9.19
2024-03-05T05:58:51.881Z,9.15
2024-03-05T06:01:20.351Z,8.65
2024-03-05T06:03:50.406Z,8.65
2024-03-05T06:06:21.226Z,8.46
2024-03-05T06:08:49.834Z,8.50
2024-03-05T06:11:18.251Z,8.78
2024-03-05T06:13:46.606Z,8.78
2024-03-05T06:16:14.726Z,9.07
2024-03-05T06:18:42.744Z,9.43
2024-03-05T06:21:12.715Z,9.35
2024-03-05T06:23:40.738Z,9.67
2024-03-05T06:26:09.407Z,9.79
2024-03-05T06:28:39.162Z,9.61
2024-03-05T06:31:07.422Z,9.53
2024-03-05T06:33:35.704Z,9.43
2024-03-05T06:36:08.086Z,9.49
2024-03-05T06:38:39.105Z,9.57
2024-03-05T06:41:07.497Z,9.70
2024-03-05T06:43:38.146Z,10.00
2024-03-05T06:46:11.334Z,9.74
2024-03-05T06:48:48.553Z,9.66
2024-03-05T06:51:28.356Z,9.43
2024-03-05T06:54:15.645Z,9.36
2024-03-05T06:56:43.998Z,9.32
2024-03-05T06:59:12.292Z,9.35
2024-03-05T07:01:40.698Z,9.39
2024-03-05T07:04:10.501Z,9.36
2024-03-05T07:06:39.229Z,9.38
2024-03-05T07:09:12.891Z,9.44
2024-03-05T07:11:41.295Z,9.47
2024-03-05T07:14:09.848Z,9.54
2024-03-05T07:16:38.011Z,9.59
2024-03-05T07:19:06.261Z,9.70
2024-03-05T07:21:35.319Z,9.97
2024-03-05T07:24:04.050Z,9.95
2024-03-05T07:26:35.971Z,9.84
2024-03-05T07:29:04.216Z,9.84
2024-03-05T07:31:33.172Z,9.91
2024-03-05T07:34:01.257Z,9.94
2024-03-05T07:36:29.997Z,9.93
2024-03-05T07:38:58.284Z,9.90
2024-03-05T07:41:33.364Z,9.90
2024-03-05T07:44:05.988Z,9.87
2024-03-05T07:46:35.575Z,9.91
2024-03-05T07:49:04.294Z,9.91
2024-03-05T07:51:41.181Z,9.88
2024-03-05T07:54:15.057Z,9.86
2024-03-05T07:56:44.509Z,9.81
2024-03-05T07:59:14.785Z,9.80
2024-03-05T08:01:43.181Z,9.74
2024-03-05T08:04:11.705Z,9.79
2024-03-05T08:06:40.030Z,9.91
2024-03-05T08:09:09.308Z,9.94
2024-03-05T08:11:37.923Z,10.00
2024-03-05T08:14:09.086Z,9.93
2024-03-05T08:16:40.503Z,10.04
2024-03-05T08:19:09.419Z,10.19
2024-03-05T08:21:37.853Z,10.17
2024-03-05T08:24:07.819Z,10.19
2024-03-05T08:26:36.216Z,10.27
2024-03-05T08:29:05.050Z,10.28
2024-03-05T08:31:33.359Z,10.42
2024-03-05T08:34:05.746Z,10.42
2024-03-05T08:36:38.470Z,10.48
2024-03-05T08:39:18.714Z,10.48
2024-03-05T08:41:48.409Z,10.38
2024-03-05T08:44:17.913Z,10.44
2024-03-05T08:46:46.203Z,10.52
2024-03-05T08:49:15.970Z,10.56
2024-03-05T08:51:46.594Z,10.53
2024-03-05T08:54:17.377Z,10.50
2024-03-05T08:56:46.144Z,10.72
2024-03-05T08:59:14.416Z,10.67
2024-03-05T09:01:42.754Z,10.73
2024-03-05T09:04:11.293Z,10.86
2024-03-05T09:06:41.924Z,10.99
2024-03-05T09:09:12.428Z,11.14
2024-03-05T09:11:41.210Z,11.11
2024-03-05T09:14:10.186Z,11.28
2024-03-05T09:16:39.454Z,11.34
2024-03-05T09:19:08.181Z,11.44
2024-03-05T09:21:37.240Z,11.52
2024-03-05T09:24:08.095Z,11.39
2024-03-05T09:26:36.645Z,11.44
2024-03-05T09:29:04.860Z,11.55
2024-03-05T09:31:34.218Z,11.68
2024-03-05T09:34:03.558Z,11.54
2024-03-05T09:36:34.362Z,11.52
2024-03-05T09:39:10.826Z,11.65
2024-03-05T09:41:43.911Z,11.85
2024-03-05T09:44:13.515Z,11.96
2024-03-05T09:46:43.545Z,11.92
2024-03-05T09:49:21.388Z,11.92
2024-03-05T09:51:52.501Z,11.96
2024-03-05T09:54:20.665Z,12.21
2024-03-05T09:56:54.980Z,11.97
2024-03-05T09:59:23.248Z,12.02
2024-03-05T10:01:52.052Z,12.04
2024-03-05T10:04:21.200Z,12.21
2024-03-05T10:06:50.373Z,12.23
2024-03-05T10:09:22.419Z,12.21
2024-03-05T10:11:53.541Z,12.30
2024-03-05T10:14:25.429Z,12.60
2024-03-05T10:17:01.648Z,12.50
2024-03-05T10:19:29.966Z,12.40
2024-03-05T10:22:10.306Z,12.12
2024-03-05T10:24:38.641Z,12.33
2024-03-05T10:27:08.458Z,12.29
2024-03-05T10:29:37.745Z,12.37
2024-03-05T10:32:06.633Z,12.51
2024-03-05T10:34:36.253Z,12.55
2024-03-05T10:37:06.326Z,12.62
2024-03-05T10:39:34.830Z,12.87
2024-03-05T10:42:05.090Z,12.60
2024-03-05T10:44:37.794Z,12.51
2024-03-05T10:47:07.917Z,12.71
2024-03-05T10:49:37.834Z,12.81
2024-03-05T10:52:07.665Z,12.68
2024-03-05T10:54:38.875Z,12.61
2024-03-05T10:57:08.283Z,12.71
2024-03-05T10:59:42.335Z,12.77
2024-03-05T11:02:14.450Z,12.79
2024-03-05T11:04:44.832Z,12.74
2024-03-05T11:07:14.506Z,12.74
2024-03-05T11:09:43.620Z,12.62
2024-03-05T11:12:15.057Z,12.62
2024-03-05T11:14:47.986Z,12.42
2024-03-05T11:17:17.402Z,12.24
2024-03-05T11:19:46.730Z,11.93
2024-03-05T11:22:23.516Z,11.82
2024-03-05T11:24:58.619Z,11.89
2024-03-05T11:27:27.922Z,12.00
2024-03-05T11:30:14.176Z,12.19
2024-03-05T11:32:42.838Z,12.31
2024-03-05T11:35:12.478Z,12.36
2024-03-05T11:37:48.962Z,12.57
2024-03-05T11:40:19.292Z,12.36
2024-03-05T11:42:48.349Z,11.99
2024-03-05T11:45:46.151Z,12.03
2024-03-05T11:48:16.035Z,11.94
2024-03-05T11:50:44.443Z,11.89
2024-03-05T11:53:13.337Z,11.72
2024-03-05T11:55:42.129Z,11.69
2024-03-05T11:58:12.059Z,11.72
2024-03-05T12:00:40.622Z,11.73
2024-03-05T12:03:11.127Z,11.87
2024-03-05T12:05:45.629Z,11.73
2024-03-05T12:08:13.964Z,11.69
2024-03-05T12:10:42.569Z,11.85
2024-03-05T12:13:12.825Z,12.00
2024-03-05T12:15:41.125Z,12.16
2024-03-05T12:18:12.651Z,12.06
2024-03-05T12:20:42.861Z,12.00
2024-03-05T12:23:12.278Z,11.90
2024-03-05T12:25:43.567Z,11.96
2024-03-05T12:28:12.923Z,11.73
2024-03-05T12:30:41.956Z,11.71
2024-03-05T12:33:11.534Z,11.64
2024-03-05T12:35:40.422Z,11.61
2024-03-05T12:38:08.565Z,11.48
2024-03-05T12:40:36.968Z,11.39
2024-03-05T12:43:09.839Z,11.41
2024-03-05T12:45:38.775Z,11.24
2024-03-05T12:48:10.173Z,11.08
2024-03-05T12:50:41.123Z,11.15
2024-03-05T12:53:09.722Z,11.18
2024-03-05T12:55:38.512Z,11.04
2024-03-05T12:58:08.136Z,10.99
2024-03-05T13:00:36.894Z,10.94
2024-03-05T13:03:06.270Z,10.92
2024-03-05T13:05:34.497Z,10.93
2024-03-05T13:08:05.680Z,10.72
2024-03-05T13:10:34.623Z,10.53
2024-03-05T13:13:05.694Z,10.52
2024-03-05T13:15:33.854Z,10.41
2024-03-05T13:18:02.118Z,10.39
2024-03-05T13:20:31.580Z,10.18
2024-03-05T13:23:00.886Z,9.86
2024-03-05T13:25:31.695Z,9.66
2024-03-05T13:28:01.774Z,9.61
2024-03-05T13:30:30.029Z,9.49
2024-03-05T13:33:02.683Z,9.36
2024-03-05T13:35:33.582Z,9.23
2024-03-05T13:38:02.497Z,9.09
2024-03-05T13:40:34.302Z,9.16
2024-03-05T13:43:02.858Z,9.07
2024-03-05T13:45:31.736Z,9.02
2024-03-05T13:48:00.094Z,8.87
2024-03-05T13:50:34.911Z,8.50
2024-03-05T13:53:03.155Z,8.52
2024-03-05T13:55:32.724Z,8.49
2024-03-05T13:58:00.882Z,8.54
2024-03-05T14:00:32.827Z,8.50
2024-03-05T14:03:01.399Z,8.29
2024-03-05T14:05:29.798Z,8.32
2024-03-05T14:07:59.382Z,8.29
2024-03-05T14:10:27.615Z,8.30
2024-03-05T14:12:57.202Z,8.29
2024-03-05T14:15:26.079Z,8.40
2024-03-05T14:17:54.554Z,8.34
2024-03-05T14:20:29.509Z,8.46
2024-03-05T14:22:57.982Z,8.49
2024-03-05T14:25:26.177Z,8.56
2024-03-05T14:27:54.820Z,8.37
2024-03-05T14:30:27.211Z,8.37
2024-03-05T14:33:00.217Z,8.34
2024-03-05T14:35:28.703Z,8.40
2024-03-05T14:37:57.600Z,8.34
2024-03-05T14:40:27.342Z,8.47
2024-03-05T14:42:55.659Z,8.42
2024-03-05T14:45:26.225Z,8.40
2024-03-05T14:47:54.328Z,8.40
2024-03-05T14:50:23.814Z,8.30
2024-03-05T14:52:54.016Z,8.28
2024-03-05T14:55:23.776Z,8.28
2024-03-05T14:57:52.089Z,8.32
2024-03-05T15:00:24.110Z,8.53
2024-03-05T15:02:54.454Z,8.50
2024-03-05T15:05:23.723Z,8.49
2024-03-05T15:07:54.122Z,8.56
2024-03-05T15:10:23.219Z,8.53
2024-03-05T15:12:52.888Z,8.63
2024-03-05T15:15:22.226Z,8.70
2024-03-05T15:17:50.719Z,8.68
2024-03-05T15:20:23.257Z,8.77
2024-03-05T15:22:52.211Z,8.71
2024-03-05T15:25:22.847Z,8.87
2024-03-05T15:30:22.685Z,9.04
2024-03-05T15:32:52.925Z,8.97
2024-03-05T15:35:23.328Z,8.89
2024-03-05T15:37:53.108Z,8.89
2024-03-05T15:40:23.759Z,8.87
2024-03-05T15:42:53.840Z,8.94
2024-03-05T15:45:23.527Z,8.89
2024-03-05T15:47:54.018Z,8.87
2024-03-05T15:50:25.268Z,8.97
2024-03-05T15:52:54.849Z,8.92
2024-03-05T15:55:25.685Z,8.84
2024-03-05T15:58:09.347Z,8.88
2024-03-05T16:00:38.144Z,8.82
2024-03-05T16:03:08.718Z,8.91
2024-03-05T16:05:47.588Z,8.75
2024-03-05T16:08:25.504Z,8.81
2024-03-05T16:10:55.015Z,8.78
2024-03-05T16:13:23.973Z,8.92
2024-03-05T16:15:52.981Z,8.91
2024-03-05T16:18:23.089Z,8.92
2024-03-05T16:20:53.932Z,8.94
2024-03-05T16:23:22.895Z,8.88
2024-03-05T16:25:52.785Z,8.87
2024-03-05T16:28:21.942Z,8.92
2024-03-05T16:30:50.232Z,9.08
2024-03-05T16:33:18.276Z,8.92
2024-03-05T16:35:48.163Z,8.94
2024-03-05T16:38:18.659Z,8.91
2024-03-05T16:40:46.855Z,8.91
2024-03-05T16:43:16.348Z,8.89
2024-03-05T16:45:44.523Z,8.88
2024-03-05T16:48:12.846Z,8.80
2024-03-05T16:50:41.445Z,8.64
2024-03-05T16:53:11.320Z,8.56
2024-03-05T16:55:43.270Z,8.46
2024-03-05T16:58:15.022Z,8.42
2024-03-05T17:00:52.504Z,8.52
2024-03-05T17:03:22.832Z,8.56
2024-03-05T17:05:54.443Z,8.47
2024-03-05T17:08:24.942Z,8.43
2024-03-05T17:10:56.521Z,8.29
2024-03-05T17:13:28.152Z,8.42
2024-03-05T17:16:00.730Z,8.13
2024-03-05T17:18:34.086Z,7.99
2024-03-05T17:21:05.204Z,8.07
2024-03-05T17:23:33.546Z,8.28
2024-03-05T17:26:03.588Z,8.22
2024-03-05T17:28:32.447Z,8.09
2024-03-05T17:31:00.917Z,7.85
2024-03-05T17:33:29.761Z,7.78
2024-03-05T17:35:59.391Z,7.81
2024-03-05T17:38:31.608Z,7.77
2024-03-05T17:41:04.739Z,7.60
2024-03-05T17:43:33.048Z,7.67
2024-03-05T17:46:02.674Z,7.53
2024-03-05T17:48:30.985Z,7.38
2024-03-05T17:50:59.457Z,7.23
2024-03-05T17:53:27.650Z,7.19
2024-03-05T17:55:57.152Z,6.92
2024-03-05T17:58:26.961Z,6.95
2024-03-05T18:00:55.328Z,6.86
2024-03-05T18:03:24.525Z,6.95
2024-03-05T18:05:53.881Z,6.96
2024-03-05T18:08:22.424Z,7.07
2024-03-05T18:10:50.921Z,6.97
2024-03-05T18:13:22.275Z,6.75
2024-03-05T18:15:53.375Z,6.69
2024-03-05T18:18:21.553Z,6.55
2024-03-05T18:20:50.217Z,6.38
2024-03-05T18:23:18.743Z,6.34
2024-03-05T18:25:48.245Z,6.20
2024-03-05T18:28:21.389Z,6.21
2024-03-05T18:30:51.478Z,6.17
2024-03-05T18:33:20.102Z,6.14
2024-03-05T18:35:48.706Z,6.13
2024-03-05T18:38:24.939Z,6.28
2024-03-05T18:41:01.436Z,6.30
2024-03-05T18:43:31.651Z,6.54
2024-03-05T18:46:05.024Z,6.52
2024-03-05T18:48:34.951Z,6.52
2024-03-05T18:51:03.524Z,6.68
2024-03-05T18:53:39.545Z,6.48
2024-03-05T18:56:13.881Z,6.67
2024-03-05T18:58:44.634Z,6.69
2024-03-05T19:01:15.768Z,6.82
2024-03-05T19:03:45.856Z,6.59
2024-03-05T19:06:14.152Z,6.38
2024-03-05T19:08:42.448Z,6.49
2024-03-05T19:11:12.497Z,6.30
2024-03-05T19:13:43.115Z,6.41
2024-03-05T19:16:11.587Z,6.23
2024-03-05T19:18:41.196Z,6.33
2024-03-05T19:21:12.626Z,6.30
2024-03-05T19:23:42.704Z,6.30
2024-03-05T19:26:13.533Z,6.31
2024-03-05T19:28:41.899Z,6.21
2024-03-05T19:31:10.816Z,6.26
2024-03-05T19:33:39.163Z,6.17
2024-03-05T19:36:11.208Z,6.36
2024-03-05T19:38:41.804Z,6.23
2024-03-05T19:41:11.280Z,6.37
2024-03-05T19:43:41.030Z,6.41
2024-03-05T19:46:09.656Z,6.36
2024-03-05T19:48:39.349Z,6.26
2024-03-05T19:51:11.540Z,6.26
2024-03-05T19:53:39.817Z,6.16
2024-03-05T19:56:08.414Z,6.16
2024-03-05T19:58:36.594Z,6.13
2024-03-05T20:01:08.324Z,6.17
2024-03-05T20:03:37.211Z,6.11
2024-03-05T20:06:09.384Z,6.16
2024-03-05T20:08:39.354Z,6.27
2024-03-05T20:11:12.109Z,6.37
2024-03-05T20:13:40.964Z,6.44
2024-03-05T20:16:10.676Z,6.38
2024-03-05T20:18:39.160Z,6.42
2024-03-05T20:21:09.882Z,6.38
2024-03-05T20:23:44.019Z,6.30
2024-03-05T20:26:12.618Z,6.28
2024-03-05T20:28:40.671Z,6.47
2024-03-05T20:31:11.006Z,6.47
2024-03-05T20:33:40.719Z,6.41
2024-03-05T20:36:11.009Z,6.41
2024-03-05T20:38:39.521Z,6.41
2024-03-05T20:41:09.571Z,6.33
2024-03-05T20:43:37.861Z,6.40
2024-03-05T20:46:06.207Z,6.34
2024-03-05T20:48:35.461Z,6.38
2024-03-05T20:51:03.958Z,6.45
2024-03-05T20:53:32.103Z,6.42
2024-03-05T20:56:00.309Z,6.41
2024-03-05T20:58:32.259Z,6.37
2024-03-05T21:01:00.347Z,6.30
2024-03-05T21:03:31.637Z,6.36
2024-03-05T21:05:59.805Z,6.21
2024-03-05T21:08:28.016Z,6.16
2024-03-05T21:10:56.244Z,6.26
2024-03-05T21:13:27.140Z,6.19
2024-03-05T21:15:56.616Z,6.00
2024-03-05T21:18:24.785Z,5.90
2024-03-05T21:20:52.811Z,5.79
2024-03-05T21:23:21.086Z,5.73
2024-03-05T21:26:03.183Z,5.68
2024-03-05T21:28:37.921Z,5.73
2024-03-05T21:31:07.984Z,5.88
2024-03-05T21:33:36.029Z,5.99
2024-03-05T21:36:05.456Z,6.00
2024-03-05T21:38:33.547Z,6.14
2024-03-05T21:41:01.764Z,6.24
2024-03-05T21:43:29.184Z,6.10
2024-03-05T21:45:58.043Z,6.09
2024-03-05T21:48:27.848Z,6.19
2024-03-05T21:51:05.828Z,6.26
2024-03-05T21:53:37.971Z,6.31
2024-03-05T21:56:06.997Z,6.27
2024-03-05T21:58:35.238Z,6.31
2024-03-05T22:01:03.403Z,6.38
2024-03-05T22:03:33.293Z,6.36
2024-03-05T22:06:08.172Z,6.40
2024-03-05T22:08:40.696Z,6.45
2024-03-05T22:11:09.505Z,6.52
2024-03-05T22:13:37.725Z,6.59
2024-03-05T22:16:06.996Z,6.58
2024-03-05T22:18:37.644Z,6.44
2024-03-05T22:21:06.912Z,6.38
2024-03-05T22:23:34.981Z,6.16
2024-03-05T22:26:03.349Z,6.10
2024-03-05T22:28:31.518Z,6.14
2024-03-05T22:31:00.003Z,6.05
2024-03-05T22:33:28.182Z,6.14
2024-03-05T22:35:58.254Z,6.38
2024-03-05T22:38:26.464Z,6.34
2024-03-05T22:40:54.752Z,6.30
2024-03-05T22:43:24.220Z,6.16
2024-03-05T22:45:52.733Z,6.16
2024-03-05T22:48:23.540Z,6.11
2024-03-05T22:50:54.013Z,6.09
2024-03-05T22:53:23.912Z,6.17
2024-03-05T22:55:52.444Z,6.23
2024-03-05T22:58:23.714Z,6.27
2024-03-05T23:00:55.101Z,6.41
2024-03-05T23:03:23.478Z,6.54
2024-03-05T23:05:51.512Z,6.38
2024-03-05T23:08:19.891Z,6.31
2024-03-05T23:10:50.115Z,6.17
2024-03-05T23:13:18.193Z,6.14
2024-03-05T23:15:46.494Z,6.13
2024-03-05T23:18:14.578Z,6.06
2024-03-05T23:20:42.794Z,6.03
2024-03-05T23:23:12.735Z,6.10
2024-03-05T23:25:40.845Z,6.19
2024-03-05T23:28:13.046Z,6.03
2024-03-05T23:30:41.281Z,5.95
2024-03-05T23:33:09.299Z,5.85
2024-03-05T23:35:37.671Z,5.55
2024-03-05T23:38:06.272Z,5.41
2024-03-05T23:40:34.514Z,5.27
2024-03-05T23:43:02.878Z,5.23
2024-03-05T23:45:32.498Z,5.28
2024-03-05T23:48:00.748Z,5.21
2024-03-05T23:50:28.975Z,5.24
2024-03-05T23:52:57.170Z,5.16
2024-03-05T23:55:25.596Z,5.06
2024-03-05T23:57:53.744Z,5.11
